sensor_id;sensor_type;location;lat;lon;timestamp;pressure;altitude;pressure_sealevel;temperature;humidity
804;BME280;25687;49.976;8.240;2024-02-15T00:00:16;100516.66;;;9.30;100.00
804;BME280;25687;49.976;8.240;2024-02-15T00:02:42;100518.06;;;9.37;100.00
804;BME280;25687;49.976;8.240;2024-02-15T00:05:10;100518.84;;;9.39;100.00
804;BME280;25687;49.976;8.240;2024-02-15T00:07:35;100517.88;;;9.42;100.00
804;BME280;25687;49.976;8.240;2024-02-15T00:10:01;100509.69;;;9.52;100.00
804;BME280;25687;49.976;8.240;2024-02-15T00:12:26;100508.88;;;9.52;100.00
804;BME280;25687;49.976;8.240;2024-02-15T00:14:51;100504.50;;;9.54;100.00
804;BME280;25687;49.976;8.240;2024-02-15T00:17:16;100503.66;;;9.53;100.00
804;BME280;25687;49.976;8.240;2024-02-15T00:19:43;100495.00;;;9.56;100.00
804;BME280;25687;49.976;8.240;2024-02-15T00:22:08;100495.22;;;9.51;100.00
804;BME280;25687;49.976;8.240;2024-02-15T00:24:36;100498.88;;;9.46;100.00
804;BME280;25687;49.976;8.240;2024-02-15T00:27:01;100508.06;;;9.31;100.00
804;BME280;25687;49.976;8.240;2024-02-15T00:29:26;100513.19;;;9.31;100.00
804;BME280;25687;49.976;8.240;2024-02-15T00:31:53;100508.31;;;9.25;100.00
804;BME280;25687;49.976;8.240;2024-02-15T00:34:19;100516.03;;;9.25;100.00
804;BME280;25687;49.976;8.240;2024-02-15T00:36:45;100504.00;;;9.25;100.00
804;BME280;25687;49.976;8.240;2024-02-15T00:39:11;100509.28;;;9.22;100.00
804;BME280;25687;49.976;8.240;2024-02-15T00:41:36;100512.38;;;9.30;100.00
804;BME280;25687;49.976;8.240;2024-02-15T00:44:02;100513.31;;;9.28;100.00
804;BME280;25687;49.976;8.240;2024-02-15T00:46:27;100517.28;;;9.35;100.00
804;BME280;25687;49.976;8.240;2024-02-15T00:48:54;100518.19;;;9.34;100.00
804;BME280;25687;49.976;8.240;2024-02-15T00:51:19;100524.19;;;9.34;100.00
804;BME280;25687;49.976;8.240;2024-02-15T00:53:44;100518.19;;;9.34;100.00
804;BME280;25687;49.976;8.240;2024-02-15T00:56:09;100518.41;;;9.29;100.00
804;BME280;25687;49.976;8.240;2024-02-15T00:58:34;100514.69;;;9.36;100.00
804;BME280;25687;49.976;8.240;2024-02-15T01:00:59;100524.00;;;9.39;100.00
804;BME280;25687;49.976;8.240;2024-02-15T01:03:26;100529.59;;;9.47;100.00
804;BME280;25687;49.976;8.240;2024-02-15T01:05:51;100525.88;;;9.55;100.00
804;BME280;25687;49.976;8.240;2024-02-15T01:08:16;100511.94;;;9.60;100.00
804;BME280;25687;49.976;8.240;2024-02-15T01:10:42;100504.44;;;9.56;100.00
804;BME280;25687;49.976;8.240;2024-02-15T01:13:07;100511.31;;;9.55;100.00
804;BME280;25687;49.976;8.240;2024-02-15T01:15:33;100512.84;;;9.59;100.00
804;BME280;25687;49.976;8.240;2024-02-15T01:17:58;100512.56;;;9.65;100.00
804;BME280;25687;49.976;8.240;2024-02-15T01:20:24;100512.91;;;9.58;100.00
804;BME280;25687;49.976;8.240;2024-02-15T01:22:49;100510.63;;;9.71;100.00
804;BME280;25687;49.976;8.240;2024-02-15T01:25:16;100505.06;;;9.61;100.00
804;BME280;25687;49.976;8.240;2024-02-15T01:27:42;100509.50;;;9.57;100.00
804;BME280;25687;49.976;8.240;2024-02-15T01:30:07;100499.16;;;9.59;100.00
804;BME280;25687;49.976;8.240;2024-02-15T01:32:33;100498.50;;;9.74;100.00
804;BME280;25687;49.976;8.240;2024-02-15T01:34:58;100506.91;;;9.78;100.00
804;BME280;25687;49.976;8.240;2024-02-15T01:37:23;100499.66;;;9.67;100.00
804;BME280;25687;49.976;8.240;2024-02-15T01:39:49;100503.81;;;9.69;100.00
804;BME280;25687;49.976;8.240;2024-02-15T01:42:15;100509.53;;;9.76;100.00
804;BME280;25687;49.976;8.240;2024-02-15T01:44:40;100501.34;;;9.68;100.00
804;BME280;25687;49.976;8.240;2024-02-15T01:47:05;100499.84;;;9.62;100.00
804;BME280;25687;49.976;8.240;2024-02-15T01:49:31;100498.69;;;9.50;100.00
804;BME280;25687;49.976;8.240;2024-02-15T01:51:57;100503.19;;;9.45;100.00
804;BME280;25687;49.976;8.240;2024-02-15T01:54:23;100499.13;;;9.40;100.00
804;BME280;25687;49.976;8.240;2024-02-15T01:56:49;100505.94;;;9.41;100.00
804;BME280;25687;49.976;8.240;2024-02-15T01:59:15;100506.38;;;9.50;100.00
804;BME280;25687;49.976;8.240;2024-02-15T02:01:40;100504.81;;;9.46;100.00
804;BME280;25687;49.976;8.240;2024-02-15T02:04:06;100505.03;;;9.42;100.00
804;BME280;25687;49.976;8.240;2024-02-15T02:06:31;100503.75;;;9.52;100.00
804;BME280;25687;49.976;8.240;2024-02-15T02:08:56;100501.78;;;9.57;100.00
804;BME280;25687;49.976;8.240;2024-02-15T02:11:22;100502.69;;;9.56;100.00
804;BME280;25687;49.976;8.240;2024-02-15T02:13:48;100511.31;;;9.55;100.00
804;BME280;25687;49.976;8.240;2024-02-15T02:18:51;100514.47;;;9.41;100.00
804;BME280;25687;49.976;8.240;2024-02-15T02:21:16;100512.88;;;9.39;100.00
804;BME280;25687;49.976;8.240;2024-02-15T02:23:41;100508.59;;;9.39;100.00
804;BME280;25687;49.976;8.240;2024-02-15T02:26:07;100508.34;;;9.44;100.00
804;BME280;25687;49.976;8.240;2024-02-15T02:28:35;100501.25;;;9.50;100.00
804;BME280;25687;49.976;8.240;2024-02-15T02:31:00;100501.72;;;9.59;100.00
804;BME280;25687;49.976;8.240;2024-02-15T02:33:26;100497.16;;;9.65;100.00
804;BME280;25687;49.976;8.240;2024-02-15T02:35:53;100498.13;;;9.63;100.00
804;BME280;25687;49.976;8.240;2024-02-15T02:38:18;100500.63;;;9.64;100.00
804;BME280;25687;49.976;8.240;2024-02-15T02:40:44;100505.16;;;9.59;100.00
804;BME280;25687;49.976;8.240;2024-02-15T02:43:09;100501.38;;;9.47;100.00
804;BME280;25687;49.976;8.240;2024-02-15T02:45:34;100504.81;;;9.46;100.00
804;BME280;25687;49.976;8.240;2024-02-15T02:47:59;100500.81;;;9.41;100.00
804;BME280;25687;49.976;8.240;2024-02-15T02:50:25;100497.88;;;9.29;100.00
804;BME280;25687;49.976;8.240;2024-02-15T02:52:50;100498.06;;;9.25;100.00
804;BME280;25687;49.976;8.240;2024-02-15T02:55:16;100502.56;;;9.19;100.00
804;BME280;25687;49.976;8.240;2024-02-15T02:57:41;100502.88;;;9.12;100.00
804;BME280;25687;49.976;8.240;2024-02-15T03:00:10;100492.44;;;8.96;100.00
804;BME280;25687;49.976;8.240;2024-02-15T03:02:41;100487.84;;;8.82;100.00
804;BME280;25687;49.976;8.240;2024-02-15T03:05:07;100496.50;;;8.79;100.00
804;BME280;25687;49.976;8.240;2024-02-15T03:07:33;100490.16;;;8.67;100.00
804;BME280;25687;49.976;8.240;2024-02-15T03:09:59;100495.16;;;8.48;100.00
804;BME280;25687;49.976;8.240;2024-02-15T03:12:24;100503.03;;;8.44;100.00
804;BME280;25687;49.976;8.240;2024-02-15T03:14:51;100498.84;;;8.41;100.00
804;BME280;25687;49.976;8.240;2024-02-15T03:17:16;100493.28;;;8.30;100.00
804;BME280;25687;49.976;8.240;2024-02-15T03:19:42;100494.38;;;8.24;100.00
804;BME280;25687;49.976;8.240;2024-02-15T03:22:07;100495.50;;;8.17;100.00
804;BME280;25687;49.976;8.240;2024-02-15T03:24:32;100488.78;;;8.14;100.00
804;BME280;25687;49.976;8.240;2024-02-15T03:26:57;100484.75;;;8.07;100.00
804;BME280;25687;49.976;8.240;2024-02-15T03:29:22;100493.34;;;8.06;100.00
804;BME280;25687;49.976;8.240;2024-02-15T03:31:48;100489.09;;;8.05;100.00
804;BME280;25687;49.976;8.240;2024-02-15T03:34:14;100488.41;;;8.01;100.00
804;BME280;25687;49.976;8.240;2024-02-15T03:36:40;100485.06;;;7.99;100.00
804;BME280;25687;49.976;8.240;2024-02-15T03:39:05;100486.00;;;7.97;100.00
804;BME280;25687;49.976;8.240;2024-02-15T03:41:31;100482.56;;;7.98;100.00
804;BME280;25687;49.976;8.240;2024-02-15T03:43:58;100489.28;;;8.00;100.00
804;BME280;25687;49.976;8.240;2024-02-15T03:46:25;100487.31;;;8.07;100.00
804;BME280;25687;49.976;8.240;2024-02-15T03:48:50;100487.00;;;8.16;100.00
804;BME280;25687;49.976;8.240;2024-02-15T03:51:16;100486.75;;;8.22;100.00
804;BME280;25687;49.976;8.240;2024-02-15T03:53:43;100486.53;;;8.29;100.00
804;BME280;25687;49.976;8.240;2024-02-15T03:56:08;100487.09;;;8.35;100.00
804;BME280;25687;49.976;8.240;2024-02-15T03:58:33;100486.03;;;8.41;100.00
804;BME280;25687;49.976;8.240;2024-02-15T04:00:59;100486.22;;;8.36;100.00
804;BME280;25687;49.976;8.240;2024-02-15T04:03:24;100487.75;;;8.40;100.00
804;BME280;25687;49.976;8.240;2024-02-15T04:05:49;100482.34;;;8.48;100.00
804;BME280;25687;49.976;8.240;2024-02-15T04:08:14;100484.03;;;8.49;100.00
804;BME280;25687;49.976;8.240;2024-02-15T04:10:41;100496.81;;;8.51;100.00
804;BME280;25687;49.976;8.240;2024-02-15T04:13:06;100487.38;;;8.51;100.00
804;BME280;25687;49.976;8.240;2024-02-15T04:15:32;100498.28;;;8.56;100.00
804;BME280;25687;49.976;8.240;2024-02-15T04:17:58;100497.25;;;8.61;100.00
804;BME280;25687;49.976;8.240;2024-02-15T04:20:24;100486.94;;;8.62;100.00
804;BME280;25687;49.976;8.240;2024-02-15T04:22:50;100495.59;;;8.60;100.00
804;BME280;25687;49.976;8.240;2024-02-15T04:25:15;100494.88;;;8.56;100.00
804;BME280;25687;49.976;8.240;2024-02-15T04:27:42;100488.19;;;8.52;100.00
804;BME280;25687;49.976;8.240;2024-02-15T04:30:07;100484.97;;;8.47;100.00
804;BME280;25687;49.976;8.240;2024-02-15T04:32:33;100480.69;;;8.47;100.00
804;BME280;25687;49.976;8.240;2024-02-15T04:34:59;100486.53;;;8.51;100.00
804;BME280;25687;49.976;8.240;2024-02-15T04:37:24;100486.53;;;8.51;100.00
804;BME280;25687;49.976;8.240;2024-02-15T04:39:53;100489.16;;;8.49;100.00
804;BME280;25687;49.976;8.240;2024-02-15T04:42:19;100480.50;;;8.52;100.00
804;BME280;25687;49.976;8.240;2024-02-15T04:44:44;100469.28;;;8.54;100.00
804;BME280;25687;49.976;8.240;2024-02-15T04:47:09;100471.81;;;8.56;100.00
804;BME280;25687;49.976;8.240;2024-02-15T04:49:34;100468.38;;;8.55;100.00
804;BME280;25687;49.976;8.240;2024-02-15T04:52:03;100462.94;;;8.63;100.00
804;BME280;25687;49.976;8.240;2024-02-15T04:54:28;100462.50;;;8.74;100.00
804;BME280;25687;49.976;8.240;2024-02-15T04:56:54;100461.38;;;8.81;100.00
804;BME280;25687;49.976;8.240;2024-02-15T04:59:19;100461.63;;;8.75;100.00
804;BME280;25687;49.976;8.240;2024-02-15T05:01:46;100466.66;;;8.78;100.00
804;BME280;25687;49.976;8.240;2024-02-15T05:04:11;100473.31;;;8.82;100.00
804;BME280;25687;49.976;8.240;2024-02-15T05:06:37;100470.59;;;8.85;100.00
804;BME280;25687;49.976;8.240;2024-02-15T05:09:02;100477.41;;;8.86;100.00
804;BME280;25687;49.976;8.240;2024-02-15T05:11:37;100471.69;;;8.80;100.00
804;BME280;25687;49.976;8.240;2024-02-15T05:14:06;100470.31;;;8.93;100.00
804;BME280;25687;49.976;8.240;2024-02-15T05:16:32;100464.22;;;8.96;100.00
804;BME280;25687;49.976;8.240;2024-02-15T05:18:57;100462.59;;;8.93;100.00
804;BME280;25687;49.976;8.240;2024-02-15T05:21:22;100459.38;;;8.88;100.00
804;BME280;25687;49.976;8.240;2024-02-15T05:23:47;100463.69;;;8.87;100.00
804;BME280;25687;49.976;8.240;2024-02-15T05:26:13;100455.81;;;8.92;100.00
804;BME280;25687;49.976;8.240;2024-02-15T05:28:41;100468.47;;;8.95;100.00
804;BME280;25687;49.976;8.240;2024-02-15T05:33:35;100462.00;;;9.07;100.00
804;BME280;25687;49.976;8.240;2024-02-15T05:36:01;100466.44;;;9.03;100.00
804;BME280;25687;49.976;8.240;2024-02-15T05:38:27;100453.41;;;9.08;100.00
804;BME280;25687;49.976;8.240;2024-02-15T05:40:54;100460.69;;;8.98;100.00
804;BME280;25687;49.976;8.240;2024-02-15T05:43:19;100467.34;;;9.02;100.00
804;BME280;25687;49.976;8.240;2024-02-15T05:45:45;100468.22;;;9.01;100.00
804;BME280;25687;49.976;8.240;2024-02-15T05:48:10;100478.38;;;9.04;100.00
804;BME280;25687;49.976;8.240;2024-02-15T05:50:37;100473.97;;;9.08;100.00
804;BME280;25687;49.976;8.240;2024-02-15T05:53:03;100474.97;;;9.04;100.00
804;BME280;25687;49.976;8.240;2024-02-15T05:55:28;100468.47;;;8.95;100.00
804;BME280;25687;49.976;8.240;2024-02-15T05:57:56;100470.88;;;9.00;100.00
804;BME280;25687;49.976;8.240;2024-02-15T06:00:21;100468.97;;;8.84;100.00
804;BME280;25687;49.976;8.240;2024-02-15T06:02:46;100472.91;;;8.92;100.00
804;BME280;25687;49.976;8.240;2024-02-15T06:05:11;100469.63;;;8.88;100.00
804;BME280;25687;49.976;8.240;2024-02-15T06:07:37;100470.34;;;8.92;100.00
804;BME280;25687;49.976;8.240;2024-02-15T06:10:02;100472.00;;;8.93;100.00
804;BME280;25687;49.976;8.240;2024-02-15T06:12:31;100467.31;;;8.82;100.00
804;BME280;25687;49.976;8.240;2024-02-15T06:14:57;100470.09;;;8.98;100.00
804;BME280;25687;49.976;8.240;2024-02-15T06:17:22;100475.38;;;8.95;100.00
804;BME280;25687;49.976;8.240;2024-02-15T06:19:47;100469.38;;;8.94;100.00
804;BME280;25687;49.976;8.240;2024-02-15T06:22:12;100464.38;;;8.91;100.00
804;BME280;25687;49.976;8.240;2024-02-15T06:24:38;100461.19;;;8.86;100.00
804;BME280;25687;49.976;8.240;2024-02-15T06:27:03;100453.84;;;8.77;100.00
804;BME280;25687;49.976;8.240;2024-02-15T06:29:28;100457.72;;;8.87;100.00
804;BME280;25687;49.976;8.240;2024-02-15T06:32:12;100445.91;;;9.03;100.00
804;BME280;25687;49.976;8.240;2024-02-15T06:34:56;100439.81;;;9.06;100.00
804;BME280;25687;49.976;8.240;2024-02-15T06:37:40;100438.22;;;9.03;100.00
804;BME280;25687;49.976;8.240;2024-02-15T06:40:24;100440.00;;;9.01;100.00
804;BME280;25687;49.976;8.240;2024-02-15T06:42:49;100428.91;;;9.01;100.00
804;BME280;25687;49.976;8.240;2024-02-15T06:45:15;100428.13;;;8.99;100.00
804;BME280;25687;49.976;8.240;2024-02-15T06:47:41;100436.94;;;8.93;100.00
804;BME280;25687;49.976;8.240;2024-02-15T06:50:09;100430.63;;;9.00;100.00
804;BME280;25687;49.976;8.240;2024-02-15T06:52:34;100431.66;;;8.96;100.00
804;BME280;25687;49.976;8.240;2024-02-15T06:54:59;100432.72;;;8.92;100.00
804;BME280;25687;49.976;8.240;2024-02-15T06:57:24;100431.56;;;8.99;100.00
804;BME280;25687;49.976;8.240;2024-02-15T06:59:50;100428.72;;;9.06;100.00
804;BME280;25687;49.976;8.240;2024-02-15T07:02:16;100438.72;;;9.12;100.00
804;BME280;25687;49.976;8.240;2024-02-15T07:04:42;100445.66;;;9.10;100.00
804;BME280;25687;49.976;8.240;2024-02-15T07:07:09;100451.59;;;9.10;100.00
804;BME280;25687;49.976;8.240;2024-02-15T07:09:35;100446.44;;;9.12;100.00
804;BME280;25687;49.976;8.240;2024-02-15T07:12:00;100449.75;;;9.14;100.00
804;BME280;25687;49.976;8.240;2024-02-15T07:14:25;100455.38;;;9.22;100.00
804;BME280;25687;49.976;8.240;2024-02-15T07:16:52;100456.03;;;9.27;100.00
804;BME280;25687;49.976;8.240;2024-02-15T07:19:18;100457.69;;;9.28;100.00
804;BME280;25687;49.976;8.240;2024-02-15T07:21:43;100461.94;;;9.29;100.00
804;BME280;25687;49.976;8.240;2024-02-15T07:24:09;100462.31;;;9.20;100.00
804;BME280;25687;49.976;8.240;2024-02-15T07:26:37;100461.81;;;9.12;100.00
804;BME280;25687;49.976;8.240;2024-02-15T07:29:02;100461.34;;;9.23;100.00
804;BME280;25687;49.976;8.240;2024-02-15T07:31:31;100452.41;;;9.31;100.00
804;BME280;25687;49.976;8.240;2024-02-15T07:33:56;100454.41;;;9.45;100.00
804;BME280;25687;49.976;8.240;2024-02-15T07:36:22;100457.16;;;9.41;100.00
804;BME280;25687;49.976;8.240;2024-02-15T07:38:48;100450.84;;;9.48;100.00
804;BME280;25687;49.976;8.240;2024-02-15T07:41:14;100450.44;;;9.76;100.00
804;BME280;25687;49.976;8.240;2024-02-15T07:43:39;100457.44;;;9.92;100.00
804;BME280;25687;49.976;8.240;2024-02-15T07:46:05;100451.94;;;9.99;100.00
804;BME280;25687;49.976;8.240;2024-02-15T07:48:31;100455.97;;;10.05;100.00
804;BME280;25687;49.976;8.240;2024-02-15T07:50:56;100456.22;;;9.81;100.00
804;BME280;25687;49.976;8.240;2024-02-15T07:53:23;100468.34;;;9.97;100.00
804;BME280;25687;49.976;8.240;2024-02-15T07:55:49;100461.72;;;10.10;100.00
804;BME280;25687;49.976;8.240;2024-02-15T07:58:15;100464.31;;;10.10;100.00
804;BME280;25687;49.976;8.240;2024-02-15T08:00:43;100464.91;;;10.15;100.00
804;BME280;25687;49.976;8.240;2024-02-15T08:03:08;100467.84;;;10.08;100.00
804;BME280;25687;49.976;8.240;2024-02-15T08:05:33;100472.16;;;10.07;100.00
804;BME280;25687;49.976;8.240;2024-02-15T08:08:00;100477.16;;;10.10;100.00
804;BME280;25687;49.976;8.240;2024-02-15T08:10:25;100465.31;;;10.25;100.00
804;BME280;25687;49.976;8.240;2024-02-15T08:12:53;100462.66;;;10.27;100.00
804;BME280;25687;49.976;8.240;2024-02-15T08:15:18;100462.75;;;10.44;100.00
804;BME280;25687;49.976;8.240;2024-02-15T08:17:44;100471.47;;;10.59;100.00
804;BME280;25687;49.976;8.240;2024-02-15T08:20:13;100461.81;;;10.63;100.00
804;BME280;25687;49.976;8.240;2024-02-15T08:22:39;100470.09;;;10.70;100.00
804;BME280;25687;49.976;8.240;2024-02-15T08:25:10;100464.41;;;10.63;100.00
804;BME280;25687;49.976;8.240;2024-02-15T08:27:37;100461.69;;;10.84;100.00
804;BME280;25687;49.976;8.240;2024-02-15T08:30:06;100461.28;;;10.91;100.00
804;BME280;25687;49.976;8.240;2024-02-15T08:32:33;100456.22;;;11.07;100.00
804;BME280;25687;49.976;8.240;2024-02-15T08:34:58;100455.59;;;11.20;100.00
804;BME280;25687;49.976;8.240;2024-02-15T08:37:24;100450.75;;;11.13;100.00
804;BME280;25687;49.976;8.240;2024-02-15T08:39:49;100447.44;;;11.11;100.00
804;BME280;25687;49.976;8.240;2024-02-15T08:42:14;100453.69;;;11.23;100.00
804;BME280;25687;49.976;8.240;2024-02-15T08:44:39;100453.41;;;11.12;100.00
804;BME280;25687;49.976;8.240;2024-02-15T08:47:05;100459.50;;;10.93;100.00
804;BME280;25687;49.976;8.240;2024-02-15T08:49:30;100452.75;;;10.91;100.00
804;BME280;25687;49.976;8.240;2024-02-15T08:51:56;100454.16;;;11.14;100.00
804;BME280;25687;49.976;8.240;2024-02-15T08:54:21;100448.13;;;11.15;100.00
804;BME280;25687;49.976;8.240;2024-02-15T08:56:47;100450.47;;;11.36;100.00
804;BME280;25687;49.976;8.240;2024-02-15T08:59:12;100453.25;;;11.49;100.00
804;BME280;25687;49.976;8.240;2024-02-15T09:01:37;100464.22;;;11.84;100.00
804;BME280;25687;49.976;8.240;2024-02-15T09:04:02;100453.00;;;11.85;100.00
804;BME280;25687;49.976;8.240;2024-02-15T09:06:27;100448.63;;;11.87;100.00
804;BME280;25687;49.976;8.240;2024-02-15T09:08:53;100448.31;;;12.09;100.00
804;BME280;25687;49.976;8.240;2024-02-15T09:11:18;100441.72;;;12.20;100.00
804;BME280;25687;49.976;8.240;2024-02-15T09:13:43;100444.19;;;12.21;100.00
804;BME280;25687;49.976;8.240;2024-02-15T09:16:09;100433.72;;;12.24;100.00
804;BME280;25687;49.976;8.240;2024-02-15T09:18:36;100431.28;;;12.37;100.00
804;BME280;25687;49.976;8.240;2024-02-15T09:21:02;100436.47;;;12.52;100.00
804;BME280;25687;49.976;8.240;2024-02-15T09:23:30;100430.31;;;12.69;100.00
804;BME280;25687;49.976;8.240;2024-02-15T09:25:56;100425.28;;;12.82;100.00
804;BME280;25687;49.976;8.240;2024-02-15T09:28:21;100431.22;;;12.98;100.00
804;BME280;25687;49.976;8.240;2024-02-15T09:30:47;100423.34;;;12.71;100.00
804;BME280;25687;49.976;8.240;2024-02-15T09:33:13;100417.38;;;12.99;100.00
804;BME280;25687;49.976;8.240;2024-02-15T09:35:38;100423.38;;;13.14;100.00
804;BME280;25687;49.976;8.240;2024-02-15T09:38:03;100425.13;;;13.28;100.00
804;BME280;25687;49.976;8.240;2024-02-15T09:40:31;100423.25;;;13.59;100.00
804;BME280;25687;49.976;8.240;2024-02-15T09:42:56;100422.75;;;14.09;100.00
804;BME280;25687;49.976;8.240;2024-02-15T09:45:21;100417.47;;;14.50;100.00
804;BME280;25687;49.976;8.240;2024-02-15T09:47:49;100411.59;;;14.61;100.00
804;BME280;25687;49.976;8.240;2024-02-15T09:50:16;100425.94;;;14.40;100.00
804;BME280;25687;49.976;8.240;2024-02-15T09:52:51;100416.44;;;14.40;100.00
804;BME280;25687;49.976;8.240;2024-02-15T09:55:16;100415.09;;;14.07;100.00
804;BME280;25687;49.976;8.240;2024-02-15T09:57:42;100409.94;;;14.07;100.00
804;BME280;25687;49.976;8.240;2024-02-15T10:00:08;100407.19;;;14.23;100.00
804;BME280;25687;49.976;8.240;2024-02-15T10:02:35;100404.84;;;14.46;100.00
804;BME280;25687;49.976;8.240;2024-02-15T10:05:03;100414.59;;;14.15;100.00
804;BME280;25687;49.976;8.240;2024-02-15T10:07:28;100409.53;;;15.18;100.00
804;BME280;25687;49.976;8.240;2024-02-15T10:09:54;100409.03;;;15.63;100.00
804;BME280;25687;49.976;8.240;2024-02-15T10:12:19;100404.19;;;15.82;100.00
804;BME280;25687;49.976;8.240;2024-02-15T10:14:48;100404.97;;;16.67;100.00
804;BME280;25687;49.976;8.240;2024-02-15T10:17:19;100397.31;;;17.22;100.00
804;BME280;25687;49.976;8.240;2024-02-15T10:19:45;100396.53;;;18.10;100.00
804;BME280;25687;49.976;8.240;2024-02-15T10:22:27;100394.34;;;18.26;100.00
804;BME280;25687;49.976;8.240;2024-02-15T10:24:52;100395.34;;;18.35;100.00
804;BME280;25687;49.976;8.240;2024-02-15T10:28:21;100386.41;;;18.80;100.00
804;BME280;25687;49.976;8.240;2024-02-15T10:30:48;100387.56;;;18.87;100.00
804;BME280;25687;49.976;8.240;2024-02-15T10:33:29;100388.84;;;18.50;100.00
804;BME280;25687;49.976;8.240;2024-02-15T10:36:07;100383.00;;;16.83;100.00
804;BME280;25687;49.976;8.240;2024-02-15T10:38:39;100385.34;;;16.52;100.00
804;BME280;25687;49.976;8.240;2024-02-15T10:41:06;100379.53;;;16.48;100.00
804;BME280;25687;49.976;8.240;2024-02-15T10:43:33;100376.06;;;15.76;100.00
804;BME280;25687;49.976;8.240;2024-02-15T10:45:59;100371.06;;;15.62;100.00
804;BME280;25687;49.976;8.240;2024-02-15T10:48:26;100369.03;;;15.17;100.00
804;BME280;25687;49.976;8.240;2024-02-15T10:50:53;100371.19;;;15.10;100.00
804;BME280;25687;49.976;8.240;2024-02-15T10:53:26;100364.22;;;14.74;100.00
804;BME280;25687;49.976;8.240;2024-02-15T10:56:21;100369.03;;;14.52;100.00
804;BME280;25687;49.976;8.240;2024-02-15T11:01:40;100360.78;;;14.86;100.00
804;BME280;25687;49.976;8.240;2024-02-15T11:04:07;100362.72;;;14.95;100.00
804;BME280;25687;49.976;8.240;2024-02-15T11:06:35;100359.06;;;15.24;100.00
804;BME280;25687;49.976;8.240;2024-02-15T11:09:04;100354.44;;;15.40;100.00
804;BME280;25687;49.976;8.240;2024-02-15T11:11:33;100353.31;;;15.31;100.00
804;BME280;25687;49.976;8.240;2024-02-15T11:16:49;100344.78;;;15.05;100.00
804;BME280;25687;49.976;8.240;2024-02-15T11:22:16;100337.66;;;14.44;100.00
804;BME280;25687;49.976;8.240;2024-02-15T11:24:49;100330.22;;;14.52;100.00
804;BME280;25687;49.976;8.240;2024-02-15T11:27:28;100337.28;;;14.10;100.00
804;BME280;25687;49.976;8.240;2024-02-15T11:29:58;100332.53;;;14.04;100.00
804;BME280;25687;49.976;8.240;2024-02-15T11:32:42;100322.94;;;14.19;100.00
804;BME280;25687;49.976;8.240;2024-02-15T11:35:19;100326.50;;;13.91;100.00
804;BME280;25687;49.976;8.240;2024-02-15T11:43:07;100311.88;;;14.30;100.00
804;BME280;25687;49.976;8.240;2024-02-15T11:45:34;100305.88;;;14.42;100.00
804;BME280;25687;49.976;8.240;2024-02-15T11:48:07;100301.75;;;14.27;100.00
804;BME280;25687;49.976;8.240;2024-02-15T11:50:36;100302.66;;;14.26;100.00
804;BME280;25687;49.976;8.240;2024-02-15T11:53:06;100296.56;;;14.27;100.00
804;BME280;25687;49.976;8.240;2024-02-15T11:55:35;100299.34;;;14.11;100.00
804;BME280;25687;49.976;8.240;2024-02-15T11:58:02;100288.19;;;14.23;100.00
804;BME280;25687;49.976;8.240;2024-02-15T12:00:31;100296.34;;;14.56;100.00
804;BME280;25687;49.976;8.240;2024-02-15T12:03:20;100285.56;;;14.88;100.00
804;BME280;25687;49.976;8.240;2024-02-15T12:06:05;100285.78;;;14.59;100.00
804;BME280;25687;49.976;8.240;2024-02-15T12:08:51;100282.13;;;15.00;100.00
804;BME280;25687;49.976;8.240;2024-02-15T12:11:35;100282.50;;;15.07;100.00
804;BME280;25687;49.976;8.240;2024-02-15T12:14:19;100291.50;;;15.14;100.00
804;BME280;25687;49.976;8.240;2024-02-15T12:17:13;100272.38;;;14.91;100.00
804;BME280;25687;49.976;8.240;2024-02-15T12:20:00;100275.06;;;15.02;100.00
804;BME280;25687;49.976;8.240;2024-02-15T12:22:36;100271.00;;;14.48;100.00
804;BME280;25687;49.976;8.240;2024-02-15T12:25:06;100274.47;;;14.60;100.00
804;BME280;25687;49.976;8.240;2024-02-15T12:27:37;100273.69;;;14.46;100.00
804;BME280;25687;49.976;8.240;2024-02-15T12:30:04;100263.97;;;14.24;100.00
804;BME280;25687;49.976;8.240;2024-02-15T12:32:32;100264.47;;;14.42;100.00
804;BME280;25687;49.976;8.240;2024-02-15T12:35:11;100259.28;;;14.42;100.00
804;BME280;25687;49.976;8.240;2024-02-15T12:37:41;100258.56;;;14.40;100.00
804;BME280;25687;49.976;8.240;2024-02-15T12:42:41;100256.06;;;14.64;100.00
804;BME280;25687;49.976;8.240;2024-02-15T12:45:07;100257.50;;;14.56;100.00
804;BME280;25687;49.976;8.240;2024-02-15T12:47:33;100253.66;;;14.87;100.00
804;BME280;25687;49.976;8.240;2024-02-15T12:49:58;100247.41;;;15.03;100.00
804;BME280;25687;49.976;8.240;2024-02-15T12:52:37;100247.63;;;15.24;100.00
804;BME280;25687;49.976;8.240;2024-02-15T12:55:11;100248.31;;;15.50;100.00
804;BME280;25687;49.976;8.240;2024-02-15T12:57:38;100252.50;;;15.64;100.00
804;BME280;25687;49.976;8.240;2024-02-15T13:00:09;100249.50;;;15.46;100.00
804;BME280;25687;49.976;8.240;2024-02-15T13:02:49;100249.41;;;15.59;100.00
804;BME280;25687;49.976;8.240;2024-02-15T13:05:16;100246.91;;;15.81;100.00
804;BME280;25687;49.976;8.240;2024-02-15T13:07:44;100237.03;;;15.51;100.00
804;BME280;25687;49.976;8.240;2024-02-15T13:10:09;100234.88;;;15.45;100.00
804;BME280;25687;49.976;8.240;2024-02-15T13:12:36;100240.59;;;15.61;100.00
804;BME280;25687;49.976;8.240;2024-02-15T13:15:06;100232.88;;;15.48;100.00
804;BME280;25687;49.976;8.240;2024-02-15T13:17:36;100226.72;;;15.38;100.00
804;BME280;25687;49.976;8.240;2024-02-15T13:20:02;100225.84;;;15.51;100.00
804;BME280;25687;49.976;8.240;2024-02-15T13:22:32;100222.59;;;15.36;100.00
804;BME280;25687;49.976;8.240;2024-02-15T13:24:58;100226.22;;;15.33;100.00
804;BME280;25687;49.976;8.240;2024-02-15T13:27:23;100225.13;;;15.24;100.00
804;BME280;25687;49.976;8.240;2024-02-15T13:29:49;100220.50;;;15.41;100.00